Decoded Metar for KELN (ELLENSBURG in WA, USA) (IATA:ELN) | Meteo·Mobile Aviation Weather
aviador You're here:

KELN Decoded Metar

ELLENSBURG in WA, USA
Report Time2019-02-16 16:53:00
UTC Time2019-02-16 17:41:59
Flight Rules mvfr MVFR
WindCalm
Visibility9999 m
Phenomena:N/A
Clouds:Overcast 026 Hf
Expected CloudBase > 1,200 ft AGL from Temp-Dew spread
Ceiling2,600 ft
Temp-1°C (ISA -13)
Dew Point-4°C (80% RH)
AAT-3.5°C
QNH1009 hPa
Density Alt371 ft
Elevation1,703 ft
Report Wrong Elevation
Raw Report
KELN 161653Z AUTO 00000KT 10SM OVC026 M01/M04 A2979 RMK AO2 SNE03
SLP103 P0000 T10061039=

Extra information for KELN:More info

Metar Taf Metar & Taf Last 4 Metars F.Rules Stats Wind Profile Meteogram Temp Stats Airport Information Weather charts Add Link Nearby VenuesMetar ALERT Operation Metar Decoded Social comments

AIRNAV info for KELN